Time;durP1;ratioP1;P1;durP2;ratioP2;P2;SDS_P1;SDS_P2;PMS_P1;PMS_P2;Temp;Humidity;BMP_temperature;BMP_pressure;BME280_temperature;BME280_humidity;BME280_pressure;Samples;Min_cycle;Max_cycle;Signal;HPM_P1;HPM_P2
2022/09/24 00:00:52;;;;;;;17.10;11.85;;;14.60;99.90;;;;;;5038398;28;20116;-81
2022/09/24 00:03:23;;;;;;;18.02;13.27;;;14.50;99.90;;;;;;5055389;28;20032;-81
2022/09/24 00:05:51;;;;;;;23.17;14.27;;;14.50;99.90;;;;;;5038329;28;20063;-81
2022/09/24 00:08:18;;;;;;;19.67;13.25;;;14.50;99.90;;;;;;5072949;28;20037;-81
2022/09/24 00:10:46;;;;;;;18.05;13.23;;;14.50;99.90;;;;;;5072891;28;20102;-81
2022/09/24 00:13:14;;;;;;;18.75;12.93;;;14.50;99.90;;;;;;5072815;28;20036;-80
2022/09/24 00:15:46;;;;;;;20.90;14.57;;;14.50;99.90;;;;;;5054575;28;20404;-80
2022/09/24 00:18:13;;;;;;;20.95;12.65;;;14.50;99.90;;;;;;5072843;28;20055;-80
2022/09/24 00:20:39;;;;;;;18.38;12.85;;;14.50;99.90;;;;;;5072361;28;20505;-80
2022/09/24 00:23:07;;;;;;;16.85;11.57;;;14.50;99.90;;;;;;5072740;28;20436;-80
2022/09/24 00:28:22;;;;;;;20.35;13.85;;;14.50;99.90;;;;;;5072572;28;20481;-80
2022/09/24 00:30:48;;;;;;;21.10;13.85;;;14.40;99.90;;;;;;5054395;28;20035;-80
2022/09/24 00:33:14;;;;;;;19.08;13.18;;;14.40;99.90;;;;;;5037725;28;20043;-80
2022/09/24 00:35:40;;;;;;;21.40;15.82;;;14.40;99.90;;;;;;5071942;28;20442;-81
2022/09/24 00:38:06;;;;;;;22.00;14.38;;;14.40;99.90;;;;;;5072647;28;20066;-80
2022/09/24 00:40:35;;;;;;;22.42;15.55;;;14.40;99.90;;;;;;5072020;28;20060;-80
2022/09/24 00:43:00;;;;;;;22.15;15.05;;;14.40;99.90;;;;;;5054435;28;20273;-81
2022/09/24 00:45:30;;;;;;;19.08;12.77;;;14.40;99.90;;;;;;5054250;28;20503;-81
2022/09/24 00:47:58;;;;;;;24.35;14.27;;;14.30;99.90;;;;;;5071892;28;20024;-80
2022/09/24 00:50:25;;;;;;;18.15;13.00;;;14.30;99.90;;;;;;5071908;28;20029;-80
2022/09/24 00:52:57;;;;;;;19.67;13.45;;;14.40;99.90;;;;;;5072443;28;20040;-80
2022/09/24 00:55:23;;;;;;;17.50;12.93;;;14.40;99.90;;;;;;5071489;28;20054;-81
2022/09/24 00:57:55;;;;;;;16.85;12.70;;;14.40;99.90;;;;;;5071743;28;20099;-80
2022/09/24 01:00:21;;;;;;;20.27;14.57;;;14.40;99.90;;;;;;5053849;28;20028;-80
2022/09/24 01:02:50;;;;;;;22.50;15.05;;;14.40;99.90;;;;;;5071952;28;20466;-80
2022/09/24 01:05:16;;;;;;;22.65;15.05;;;14.40;99.90;;;;;;5072026;28;20392;-81
2022/09/24 01:07:42;;;;;;;16.23;11.55;;;14.30;99.90;;;;;;5071633;28;20115;-80
2022/09/24 01:10:09;;;;;;;19.45;13.93;;;14.40;99.90;;;;;;5071494;28;20039;-80
2022/09/24 01:12:57;;;;;;;21.55;13.95;;;14.30;99.90;;;;;;5053895;28;20473;-80
2022/09/24 01:15:33;;;;;;;20.55;14.50;;;14.40;99.90;;;;;;5071633;28;20038;-80
2022/09/24 01:18:32;;;;;;;23.25;14.73;;;14.30;99.90;;;;;;5071521;28;20028;-81
2022/09/24 01:21:14;;;;;;;;;;;14.30;99.90;;;;;;5053995;28;20032;-80
2022/09/24 01:23:58;;;;;;;18.02;11.48;;;14.30;99.90;;;;;;5071535;28;20303;-80
2022/09/24 01:26:47;;;;;;;19.08;11.02;;;14.30;99.90;;;;;;5071139;28;20032;-80
2022/09/24 01:29:19;;;;;;;15.38;10.23;;;14.30;99.90;;;;;;5071243;28;20031;-80
2022/09/24 01:31:52;;;;;;;14.90;9.75;;;14.20;99.90;;;;;;5071547;28;20526;-81
2022/09/24 01:34:25;;;;;;;14.45;9.68;;;14.20;99.90;;;;;;5071287;28;20050;-80
2022/09/24 01:36:53;;;;;;;14.43;9.27;;;14.20;99.90;;;;;;5071000;28;20034;-80
2022/09/24 01:39:20;;;;;;;16.15;10.43;;;14.20;99.90;;;;;;5071003;28;20028;-80
2022/09/24 01:41:47;;;;;;;15.55;10.65;;;14.20;99.90;;;;;;5071024;28;20538;-80
2022/09/24 01:44:17;;;;;;;14.88;9.32;;;14.20;99.90;;;;;;5071299;28;20032;-80
2022/09/24 01:46:43;;;;;;;17.13;9.77;;;14.20;99.90;;;;;;5071218;28;20028;-80
2022/09/24 01:49:09;;;;;;;15.55;9.57;;;14.10;99.90;;;;;;5071018;28;20033;-80
2022/09/24 01:51:48;;;;;;;16.27;10.43;;;14.10;99.90;;;;;;5071073;28;20059;-81
2022/09/24 01:54:34;;;;;;;13.68;9.27;;;14.10;99.90;;;;;;5071091;28;20140;-81
2022/09/24 01:57:14;;;;;;;13.85;9.30;;;14.10;99.90;;;;;;5070882;28;20415;-80
2022/09/24 01:59:47;;;;;;;15.13;9.80;;;14.10;99.90;;;;;;5070787;28;20086;-80
2022/09/24 02:02:22;;;;;;;14.85;10.40;;;14.10;99.90;;;;;;5071077;28;20366;-81
2022/09/24 02:04:55;;;;;;;16.00;10.45;;;14.10;99.90;;;;;;5070760;28;20028;-80
2022/09/24 02:07:33;;;;;;;13.35;9.48;;;14.10;99.90;;;;;;5051851;28;20459;-80
2022/09/24 02:09:59;;;;;;;15.10;10.00;;;14.10;99.90;;;;;;5070613;28;20480;-80
2022/09/24 02:12:40;;;;;;;14.85;10.23;;;14.10;99.90;;;;;;5070798;28;20078;-80
2022/09/24 02:15:16;;;;;;;15.45;10.55;;;14.00;99.90;;;;;;5070627;28;20067;-80
2022/09/24 02:17:45;;;;;;;18.00;10.93;;;14.00;99.90;;;;;;5070502;28;20028;-81
2022/09/24 02:20:15;;;;;;;;;;;14.00;99.90;;;;;;5070863;28;20032;-81
2022/09/24 02:22:43;;;;;;;15.48;10.18;;;14.00;99.90;;;;;;5070627;28;20374;-80
2022/09/24 02:25:14;;;;;;;15.10;9.77;;;14.00;99.90;;;;;;5070541;28;20059;-80
2022/09/24 02:27:40;;;;;;;18.25;11.10;;;14.00;99.90;;;;;;5070359;28;20037;-80
2022/09/24 02:30:07;;;;;;;14.45;9.30;;;14.00;99.90;;;;;;5070356;28;20032;-80
2022/09/24 02:32:35;;;;;;;14.13;9.82;;;14.00;99.90;;;;;;5052875;28;20401;-80
2022/09/24 02:35:05;;;;;;;16.63;11.32;;;14.00;99.90;;;;;;5070572;28;20485;-80
2022/09/24 02:37:35;;;;;;;15.27;9.73;;;14.00;99.90;;;;;;5052389;28;20039;-80
2022/09/24 02:40:04;;;;;;;16.88;10.77;;;14.00;99.90;;;;;;5070244;28;20032;-80
2022/09/24 02:42:30;;;;;;;15.75;10.60;;;14.00;99.90;;;;;;5052556;28;20047;-80
2022/09/24 02:44:58;;;;;;;16.90;11.30;;;14.00;99.90;;;;;;5070523;28;20029;-80
2022/09/24 02:47:25;;;;;;;17.40;10.60;;;14.00;99.90;;;;;;5052083;28;20070;-80
2022/09/24 02:49:50;;;;;;;15.65;10.45;;;14.00;99.90;;;;;;5070199;28;20033;-80
2022/09/24 02:52:17;;;;;;;17.38;11.07;;;14.00;99.90;;;;;;5070397;28;20035;-80
2022/09/24 02:54:44;;;;;;;17.92;11.68;;;14.00;99.90;;;;;;5070289;28;20043;-81
2022/09/24 02:57:10;;;;;;;18.75;11.55;;;14.00;99.90;;;;;;5070281;28;20033;-80
2022/09/24 02:59:35;;;;;;;16.75;11.05;;;14.00;99.90;;;;;;5070032;28;20115;-81
2022/09/24 03:02:01;;;;;;;18.15;10.88;;;14.00;99.90;;;;;;5070139;28;20116;-80
2022/09/24 03:04:28;;;;;;;18.38;11.23;;;14.00;99.90;;;;;;5070224;28;20138;-80
2022/09/24 03:06:54;;;;;;;14.32;10.00;;;14.00;99.90;;;;;;5069956;28;20031;-80
2022/09/24 03:09:19;;;;;;;17.30;10.80;;;13.90;99.90;;;;;;5069869;28;20428;-81
2022/09/24 03:11:46;;;;;;;16.73;10.40;;;13.90;99.90;;;;;;5070137;28;20224;-80
2022/09/24 03:14:12;;;;;;;15.32;10.82;;;13.90;99.90;;;;;;5070049;28;20036;-80
2022/09/24 03:16:38;;;;;;;17.10;10.40;;;13.90;99.90;;;;;;5069911;28;20039;-81
2022/09/24 03:19:05;;;;;;;17.73;10.65;;;13.90;99.90;;;;;;5071279;28;20082;-81
2022/09/24 03:21:31;;;;;;;15.95;10.75;;;13.90;99.90;;;;;;5039320;28;20032;-81
2022/09/24 03:23:56;;;;;;;14.57;10.18;;;13.90;99.90;;;;;;5073531;28;20039;-80
2022/09/24 03:26:22;;;;;;;15.13;9.65;;;13.90;99.90;;;;;;5088245;22;20105;-83
2022/09/24 03:28:48;;;;;;;18.17;11.07;;;13.90;99.90;;;;;;5073185;28;20059;-83
2022/09/24 03:31:14;;;;;;;16.80;10.93;;;13.90;99.90;;;;;;5073557;28;20074;-83
2022/09/24 03:33:42;;;;;;;14.98;10.38;;;13.90;99.90;;;;;;5073533;28;20033;-83
2022/09/24 03:36:09;;;;;;;14.07;10.15;;;13.90;99.90;;;;;;5055543;28;20032;-83
2022/09/24 03:38:36;;;;;;;18.63;10.40;;;13.90;99.90;;;;;;5073306;28;20033;-83
2022/09/24 03:41:02;;;;;;;17.08;10.73;;;13.90;99.90;;;;;;5073945;28;20025;-83
2022/09/24 03:43:29;;;;;;;16.27;10.48;;;13.80;99.90;;;;;;5073688;28;20040;-83
2022/09/24 03:45:54;;;;;;;15.57;10.70;;;13.80;99.90;;;;;;5073110;28;20036;-83
2022/09/24 03:48:22;;;;;;;13.40;9.73;;;13.80;99.90;;;;;;5073470;28;20029;-83
2022/09/24 03:50:48;;;;;;;16.88;9.93;;;13.80;99.90;;;;;;5073099;28;20419;-83
2022/09/24 03:53:14;;;;;;;18.95;11.30;;;13.80;99.90;;;;;;5073091;28;20028;-83
2022/09/24 03:55:56;;;;;;;14.57;9.88;;;13.80;99.90;;;;;;5073354;28;20052;-83
2022/09/24 03:58:23;;;;;;;16.73;10.88;;;13.80;99.90;;;;;;5073408;28;20017;-83
2022/09/24 04:00:52;;;;;;;15.35;10.38;;;13.80;99.90;;;;;;5072988;28;20039;-83
2022/09/24 04:03:20;;;;;;;13.38;9.98;;;13.70;99.90;;;;;;5073111;28;20039;-83
2022/09/24 04:05:45;;;;;;;16.88;9.57;;;13.70;99.90;;;;;;5072785;28;20047;-83
2022/09/24 04:08:11;;;;;;;15.88;10.45;;;13.70;99.90;;;;;;5055040;28;20036;-83
2022/09/24 04:10:37;;;;;;;14.85;9.57;;;13.80;99.90;;;;;;5072986;28;20029;-83
2022/09/24 04:13:03;;;;;;;12.60;9.57;;;13.70;99.90;;;;;;5073068;28;20035;-83
2022/09/24 04:15:29;;;;;;;17.50;9.80;;;13.80;99.90;;;;;;5054921;28;20031;-82
2022/09/24 04:17:57;;;;;;;13.90;9.45;;;13.70;99.90;;;;;;5054710;28;20029;-83
2022/09/24 04:20:25;;;;;;;17.65;11.20;;;13.70;99.90;;;;;;5054641;28;20048;-83
2022/09/24 04:22:53;;;;;;;19.93;11.60;;;13.70;99.90;;;;;;5072774;28;20024;-83
2022/09/24 04:25:21;;;;;;;14.45;10.13;;;13.70;99.90;;;;;;5054752;28;20036;-83
2022/09/24 04:27:52;;;;;;;15.23;10.68;;;13.70;99.90;;;;;;5072433;28;20041;-83
2022/09/24 04:30:18;;;;;;;18.67;10.48;;;13.80;99.90;;;;;;5053606;28;20033;-83
2022/09/24 04:32:43;;;;;;;17.65;10.38;;;13.70;99.90;;;;;;5072615;28;20025;-83
2022/09/24 04:35:09;;;;;;;16.67;11.02;;;13.70;99.90;;;;;;5054557;28;20024;-83
2022/09/24 04:37:36;;;;;;;15.50;10.13;;;13.70;99.90;;;;;;5072326;28;20393;-83
2022/09/24 04:40:04;;;;;;;17.05;11.07;;;13.70;99.90;;;;;;5054514;28;20122;-83
2022/09/24 04:42:30;;;;;;;14.67;10.63;;;13.70;99.90;;;;;;5054665;28;20060;-82
2022/09/24 04:44:56;;;;;;;16.05;10.63;;;13.70;99.90;;;;;;5072210;28;20313;-82
2022/09/24 04:47:24;;;;;;;15.75;10.65;;;13.70;99.90;;;;;;5071980;28;20025;-83
2022/09/24 04:49:50;;;;;;;15.93;10.40;;;13.70;99.90;;;;;;5071908;28;20028;-83
2022/09/24 04:52:16;;;;;;;16.00;10.38;;;13.70;99.90;;;;;;5072013;28;20038;-83
2022/09/24 04:54:43;;;;;;;15.93;11.13;;;13.70;99.90;;;;;;5072039;28;20039;-83
2022/09/24 04:57:10;;;;;;;17.73;11.20;;;13.70;99.90;;;;;;5053944;28;20033;-83
2022/09/24 04:59:35;;;;;;;14.88;10.88;;;13.70;99.90;;;;;;5071775;28;20033;-83
2022/09/24 05:02:01;;;;;;;16.27;10.90;;;13.70;99.90;;;;;;5053978;28;20362;-83
2022/09/24 05:04:29;;;;;;;15.85;9.82;;;13.70;99.90;;;;;;5071804;28;20074;-83
2022/09/24 05:06:54;;;;;;;15.20;10.05;;;13.70;99.90;;;;;;5071583;28;20032;-83
2022/09/24 05:09:20;;;;;;;15.18;10.30;;;13.70;99.90;;;;;;5071675;28;20055;-82
2022/09/24 05:11:46;;;;;;;16.00;9.82;;;13.70;99.90;;;;;;5071796;28;20036;-83
2022/09/24 05:14:11;;;;;;;15.82;9.55;;;13.80;99.90;;;;;;5071739;28;20070;-83
2022/09/24 05:16:37;;;;;;;18.05;10.57;;;13.80;99.90;;;;;;5071371;28;20024;-83
2022/09/24 05:19:03;;;;;;;13.65;9.10;;;13.80;99.90;;;;;;5053426;28;20059;-83
2022/09/24 05:21:30;;;;;;;14.50;10.02;;;13.80;99.90;;;;;;5071535;28;20116;-83
2022/09/24 05:23:56;;;;;;;15.35;9.77;;;13.80;99.90;;;;;;5071653;28;20411;-83
2022/09/24 05:29:06;;;;;;;14.55;9.25;;;13.80;99.90;;;;;;5071235;28;20119;-82
2022/09/24 05:31:31;;;;;;;13.75;9.60;;;13.80;99.90;;;;;;5071902;28;20107;-83
2022/09/24 05:33:57;;;;;;;14.30;9.43;;;13.80;99.90;;;;;;5071259;28;20032;-83
2022/09/24 05:36:25;;;;;;;14.18;9.25;;;13.80;99.90;;;;;;5070925;28;20039;-83
2022/09/24 05:38:52;;;;;;;13.52;8.98;;;13.80;99.90;;;;;;5071088;28;20032;-83
2022/09/24 05:41:18;;;;;;;13.23;8.88;;;13.80;99.90;;;;;;5071162;28;20029;-83
2022/09/24 05:43:44;;;;;;;15.90;8.93;;;13.80;99.90;;;;;;5071115;28;20033;-83
2022/09/24 05:46:09;;;;;;;13.75;8.40;;;13.80;99.90;;;;;;5071293;28;20033;-83
2022/09/24 05:48:35;;;;;;;12.95;8.40;;;13.80;99.90;;;;;;5071048;28;20131;-83
2022/09/24 05:51:01;;;;;;;12.57;8.90;;;13.80;99.90;;;;;;5070948;28;20037;-83
2022/09/24 05:53:27;;;;;;;15.18;9.68;;;13.80;99.90;;;;;;5070919;28;20044;-83
2022/09/24 05:55:53;;;;;;;13.93;8.48;;;13.80;99.90;;;;;;5070780;28;20118;-83
2022/09/24 05:58:19;;;;;;;13.00;8.10;;;13.80;99.90;;;;;;5052972;28;20033;-83
2022/09/24 06:00:45;;;;;;;13.32;8.52;;;13.80;99.90;;;;;;5070705;28;20396;-83
2022/09/24 06:03:13;;;;;;;15.20;8.68;;;13.80;99.90;;;;;;5070968;28;20028;-83
2022/09/24 06:05:47;;;;;;;15.48;9.05;;;13.80;99.90;;;;;;5052606;28;20465;-83
2022/09/24 06:08:17;;;;;;;14.48;8.60;;;13.80;99.90;;;;;;5070878;28;20035;-83
2022/09/24 06:10:46;;;;;;;12.88;8.63;;;13.80;99.90;;;;;;5070636;28;20487;-83
2022/09/24 06:13:15;;;;;;;14.32;8.93;;;13.80;99.90;;;;;;5070784;28;20613;-83
2022/09/24 06:15:43;;;;;;;13.95;8.82;;;13.80;99.90;;;;;;5036066;28;20223;-82
2022/09/24 06:18:10;;;;;;;15.60;9.50;;;13.90;99.90;;;;;;5070991;28;20021;-83
2022/09/24 06:20:37;;;;;;;17.52;9.68;;;13.90;99.90;;;;;;5052693;28;20032;-82
2022/09/24 06:23:03;;;;;;;15.07;9.57;;;13.80;99.90;;;;;;5052725;28;20074;-82
2022/09/24 06:25:29;;;;;;;15.52;8.77;;;13.90;99.90;;;;;;5070563;28;20054;-83
2022/09/24 06:28:00;;;;;;;13.55;8.30;;;13.80;99.90;;;;;;5070339;28;20036;-82
2022/09/24 06:30:40;;;;;;;14.93;9.23;;;13.80;99.90;;;;;;5070372;28;20033;-83
2022/09/24 06:33:10;;;;;;;13.48;8.77;;;13.80;99.90;;;;;;5070590;28;20082;-83
2022/09/24 06:35:41;;;;;;;15.43;8.98;;;13.80;99.90;;;;;;5070305;28;20028;-83
2022/09/24 06:38:10;;;;;;;13.65;8.27;;;13.90;99.90;;;;;;5070532;28;20028;-82
2022/09/24 06:40:37;;;;;;;15.13;8.70;;;13.90;99.90;;;;;;5070301;28;20503;-82
2022/09/24 06:43:05;;;;;;;16.55;9.32;;;13.80;99.90;;;;;;5052509;28;20032;-82
2022/09/24 06:45:31;;;;;;;16.27;9.23;;;13.90;99.90;;;;;;5052592;28;20033;-83
2022/09/24 06:47:58;;;;;;;14.45;8.35;;;13.90;99.90;;;;;;5070288;28;20025;-83
2022/09/24 06:50:27;;;;;;;12.75;8.57;;;13.90;99.90;;;;;;5070089;28;20031;-83
2022/09/24 06:52:53;;;;;;;15.25;8.98;;;13.90;99.90;;;;;;5070684;28;20025;-83
2022/09/24 06:55:20;;;;;;;14.52;8.65;;;13.90;99.90;;;;;;5073900;28;20374;-82
2022/09/24 06:57:46;;;;;;;12.68;8.27;;;13.90;99.90;;;;;;5074033;28;20100;-82
2022/09/24 07:00:13;;;;;;;14.55;9.00;;;13.90;99.90;;;;;;5074105;28;20560;-83
2022/09/24 07:02:39;;;;;;;12.95;7.97;;;13.90;99.90;;;;;;5074344;28;20029;-82
2022/09/24 07:05:06;;;;;;;13.35;9.38;;;13.90;99.90;;;;;;5056149;28;20024;-82
2022/09/24 07:07:33;;;;;;;14.30;9.82;;;13.90;99.90;;;;;;5074134;28;20163;-82
2022/09/24 07:10:00;;;;;;;13.23;8.63;;;13.90;99.90;;;;;;5074013;28;20036;-83
2022/09/24 07:12:29;;;;;;;17.52;10.05;;;14.00;99.90;;;;;;5074137;28;20119;-82
2022/09/24 07:14:55;;;;;;;12.38;9.02;;;14.00;99.90;;;;;;5073978;28;20021;-82
2022/09/24 07:17:22;;;;;;;14.20;9.88;;;14.00;99.90;;;;;;5074223;28;20040;-82
2022/09/24 07:19:47;;;;;;;15.38;9.68;;;14.00;99.90;;;;;;5039010;28;20036;-82
2022/09/24 07:22:13;;;;;;;15.57;10.30;;;14.00;99.90;;;;;;5073908;28;20481;-82
2022/09/24 07:24:39;;;;;;;15.65;10.05;;;14.00;99.90;;;;;;5074033;28;20112;-82
2022/09/24 07:27:05;;;;;;;13.02;9.90;;;14.10;99.90;;;;;;5055435;28;20036;-82
2022/09/24 07:29:31;;;;;;;17.10;11.07;;;14.10;99.90;;;;;;5073622;28;20029;-82
2022/09/24 07:31:57;;;;;;;15.07;10.65;;;14.10;99.90;;;;;;5073653;28;20032;-82
2022/09/24 07:34:23;;;;;;;16.85;11.30;;;14.10;99.90;;;;;;5055451;28;20051;-82
2022/09/24 07:36:49;;;;;;;16.95;11.45;;;14.10;99.90;;;;;;5055316;28;20536;-82
2022/09/24 07:39:15;;;;;;;17.10;10.93;;;14.20;99.90;;;;;;5073417;28;20037;-82
2022/09/24 07:41:41;;;;;;;17.05;11.60;;;14.20;99.90;;;;;;5073485;28;20071;-82
2022/09/24 07:44:08;;;;;;;15.07;10.43;;;14.20;99.90;;;;;;5073510;28;20049;-82
2022/09/24 07:46:34;;;;;;;15.02;10.75;;;14.20;99.90;;;;;;5055162;28;20086;-82
2022/09/24 07:49:00;;;;;;;14.20;10.63;;;14.30;99.90;;;;;;5073063;28;20024;-82
2022/09/24 07:51:27;;;;;;;15.55;11.70;;;14.30;99.90;;;;;;5073294;28;20039;-82
2022/09/24 07:53:54;;;;;;;17.13;12.45;;;14.30;99.90;;;;;;5073292;28;20483;-82
2022/09/24 07:56:21;;;;;;;15.77;11.57;;;14.30;99.90;;;;;;5073037;28;20024;-82
2022/09/24 07:58:51;;;;;;;15.63;11.43;;;14.30;99.90;;;;;;5073115;28;20031;-82
2022/09/24 08:01:17;;;;;;;17.38;12.40;;;14.40;99.90;;;;;;5073041;28;20025;-82
2022/09/24 08:03:45;;;;;;;20.35;12.13;;;14.40;99.90;;;;;;5073233;28;20029;-82
2022/09/24 08:06:11;;;;;;;17.67;11.73;;;14.40;99.90;;;;;;5071616;28;20036;-82
2022/09/24 08:08:37;;;;;;;18.05;12.80;;;14.50;99.90;;;;;;5054802;28;20033;-82
2022/09/24 08:11:09;;;;;;;19.55;12.32;;;14.50;99.90;;;;;;5054857;28;20028;-82
2022/09/24 08:13:35;;;;;;;16.63;11.32;;;14.50;99.90;;;;;;5072802;28;20038;-82
2022/09/24 08:16:02;;;;;;;18.90;12.93;;;14.60;99.90;;;;;;5072479;28;20028;-82
2022/09/24 08:18:33;;;;;;;20.05;12.95;;;14.70;99.90;;;;;;5054645;28;20082;-82
2022/09/24 08:21:04;;;;;;;20.42;12.82;;;14.70;99.90;;;;;;5072763;28;20040;-82
2022/09/24 08:23:31;;;;;;;19.25;13.02;;;14.80;99.90;;;;;;5072791;28;20040;-82
2022/09/24 08:25:57;;;;;;;21.05;14.32;;;14.80;99.90;;;;;;5072411;28;20036;-82
2022/09/24 08:28:23;;;;;;;21.33;13.10;;;14.90;99.90;;;;;;5054772;28;20551;-82
2022/09/24 08:30:48;;;;;;;15.82;12.23;;;14.90;99.90;;;;;;5072616;28;20484;-82
2022/09/24 08:33:14;;;;;;;13.68;10.70;;;15.00;99.90;;;;;;5072560;28;20036;-82
2022/09/24 08:35:40;;;;;;;16.05;12.20;;;15.00;99.90;;;;;;5072438;28;20069;-82
2022/09/24 08:38:07;;;;;;;16.08;11.70;;;15.10;99.90;;;;;;5072537;28;20032;-82
2022/09/24 08:41:01;;;;;;;17.50;12.00;;;15.10;99.90;;;;;;5054252;28;20021;-82
2022/09/24 08:43:45;;;;;;;19.38;12.80;;;15.20;99.90;;;;;;5054569;28;20032;-82
2022/09/24 08:49:22;;;;;;;17.23;12.27;;;15.30;99.90;;;;;;5072035;28;20701;-82
2022/09/24 08:52:05;;;;;;;22.38;14.00;;;15.40;99.90;;;;;;5054500;28;20041;-82
2022/09/24 08:54:33;;;;;;;19.70;12.98;;;15.40;99.90;;;;;;5054116;28;20039;-82
2022/09/24 08:57:06;;;;;;;20.27;13.60;;;15.50;99.90;;;;;;5072012;28;20397;-82
2022/09/24 08:59:36;;;;;;;20.30;12.90;;;15.50;99.90;;;;;;5053892;28;20035;-82
2022/09/24 09:02:27;;;;;;;21.80;13.20;;;15.50;99.90;;;;;;5071962;28;20117;-82
2022/09/24 09:05:26;;;;;;;20.52;14.05;;;15.60;99.90;;;;;;5072046;28;20033;-82
2022/09/24 09:08:11;;;;;;;20.35;13.07;;;15.60;99.90;;;;;;5053956;28;20119;-82
2022/09/24 09:10:40;;;;;;;19.80;13.60;;;15.60;99.90;;;;;;5053875;28;20413;-82
2022/09/24 09:13:13;;;;;;;21.77;14.50;;;15.60;99.90;;;;;;5053804;28;20052;-82
2022/09/24 09:16:02;;;;;;;20.08;12.15;;;15.60;99.90;;;;;;5071498;28;20401;-82
2022/09/24 09:18:41;;;;;;;15.05;10.38;;;15.60;99.90;;;;;;5071015;28;20564;-82
2022/09/24 09:21:17;;;;;;;17.92;11.88;;;15.60;99.90;;;;;;5053798;28;20028;-82
2022/09/24 09:23:48;;;;;;;18.95;12.02;;;15.60;99.90;;;;;;5071579;28;20035;-82
2022/09/24 09:26:17;;;;;;;18.90;12.75;;;15.60;99.90;;;;;;5053406;28;20546;-82
2022/09/24 09:28:43;;;;;;;21.35;13.13;;;15.60;99.90;;;;;;5053460;28;20060;-82
2022/09/24 09:31:27;;;;;;;20.52;12.93;;;15.70;99.90;;;;;;5071219;28;20074;-82
2022/09/24 09:34:02;;;;;;;18.27;11.40;;;15.70;99.90;;;;;;5071405;28;20035;-82
2022/09/24 09:37:07;;;;;;;16.17;11.05;;;15.70;99.90;;;;;;5071195;28;20129;-82
2022/09/24 09:39:44;;;;;;;18.27;10.90;;;15.70;99.90;;;;;;5071315;28;20385;-82
2022/09/24 09:42:31;;;;;;;14.45;9.50;;;15.70;99.90;;;;;;5071466;28;20028;-82
2022/09/24 09:45:07;;;;;;;18.00;11.20;;;15.80;99.90;;;;;;5071207;28;20034;-82
2022/09/24 09:47:44;;;;;;;19.38;12.18;;;15.80;99.90;;;;;;5070907;28;20059;-82
2022/09/24 09:50:27;;;;;;;17.42;11.75;;;15.80;99.90;;;;;;5053297;28;20040;-82
2022/09/24 09:52:54;;;;;;;20.55;14.75;;;15.80;99.90;;;;;;5071301;28;20048;-82
2022/09/24 09:55:22;;;;;;;21.33;13.13;;;15.90;99.90;;;;;;5070913;28;20036;-82
2022/09/24 09:57:50;;;;;;;18.50;12.20;;;15.90;99.90;;;;;;5052943;28;20040;-82
2022/09/24 10:00:25;;;;;;;18.40;13.15;;;15.90;99.90;;;;;;5070668;28;20028;-82
2022/09/24 10:02:52;;;;;;;16.13;11.65;;;15.90;99.90;;;;;;5070988;28;20051;-82
2022/09/24 10:05:22;;;;;;;15.73;10.18;;;15.90;99.90;;;;;;5071066;28;20522;-82
2022/09/24 10:07:52;;;;;;;17.67;10.45;;;15.80;99.90;;;;;;5052847;28;20032;-81
2022/09/24 10:10:23;;;;;;;15.45;11.40;;;15.90;99.90;;;;;;5070811;28;20044;-81
2022/09/24 10:13:18;;;;;;;15.35;10.80;;;15.90;99.90;;;;;;5071269;28;20077;-81
2022/09/24 10:15:56;;;;;;;14.82;9.90;;;15.80;99.90;;;;;;5052743;28;20036;-82
2022/09/24 10:18:37;;;;;;;14.87;9.70;;;15.90;99.90;;;;;;5052990;28;20028;-82
2022/09/24 10:21:07;;;;;;;15.43;9.90;;;15.80;99.90;;;;;;5070528;28;20139;-82
2022/09/24 10:23:39;;;;;;;16.10;9.27;;;15.80;99.90;;;;;;5052768;28;20051;-82
2022/09/24 10:26:06;;;;;;;15.48;9.50;;;15.90;99.90;;;;;;5070363;28;20124;-81
2022/09/24 10:31:24;;;;;;;18.90;10.13;;;15.90;99.90;;;;;;5070629;28;20551;-81
2022/09/24 10:33:54;;;;;;;16.55;9.32;;;15.90;99.90;;;;;;5070595;28;20473;-81
2022/09/24 10:36:22;;;;;;;14.30;9.75;;;15.90;99.90;;;;;;5070406;28;20027;-81
2022/09/24 10:38:59;;;;;;;16.38;10.13;;;15.90;99.90;;;;;;5070408;28;20076;-82
2022/09/24 10:41:27;;;;;;;16.45;10.50;;;15.90;99.90;;;;;;5070501;28;20033;-82
2022/09/24 10:43:55;;;;;;;17.97;11.63;;;15.90;99.90;;;;;;5070407;28;20431;-81
2022/09/24 10:46:44;;;;;;;16.70;11.38;;;16.00;99.90;;;;;;5070311;28;20028;-82
2022/09/24 10:49:55;;;;;;;15.93;11.50;;;16.00;99.90;;;;;;5070509;28;20029;-81
2022/09/24 10:52:43;;;;;;;14.13;9.20;;;16.00;99.90;;;;;;5029448;28;20051;-81
2022/09/24 10:55:38;;;;;;;12.02;7.47;;;16.00;99.90;;;;;;5057325;28;20072;-81
2022/09/24 10:58:15;;;;;;;10.10;6.40;;;16.10;99.90;;;;;;5070384;28;20106;-81
2022/09/24 11:01:10;;;;;;;13.18;7.88;;;16.10;99.90;;;;;;5070178;28;20032;-82
2022/09/24 11:03:48;;;;;;;16.67;9.77;;;16.10;99.90;;;;;;5062725;28;20044;-82
2022/09/24 11:06:24;;;;;;;14.80;9.60;;;16.10;99.90;;;;;;5052377;28;20029;-82
2022/09/24 11:09:15;;;;;;;14.80;8.07;;;16.10;99.90;;;;;;5070120;28;20032;-82
2022/09/24 11:12:00;;;;;;;13.60;8.18;;;16.10;99.90;;;;;;5070263;28;20027;-83
2022/09/24 11:15:04;;;;;;;11.10;7.38;;;16.10;99.90;;;;;;5070174;28;20048;-82
2022/09/24 11:17:35;;;;;;;14.32;7.75;;;16.10;99.90;;;;;;5070021;28;20029;-83
2022/09/24 11:20:29;;;;;;;11.70;6.85;;;16.10;99.90;;;;;;5069911;28;20060;-82
2022/09/24 11:23:20;;;;;;;9.68;6.50;;;16.10;99.90;;;;;;5070158;28;20036;-82
2022/09/24 11:25:58;;;;;;;10.25;7.30;;;16.00;99.90;;;;;;5065605;28;20044;-82
2022/09/24 11:28:37;;;;;;;9.88;6.20;;;16.00;99.90;;;;;;5070332;28;20067;-83
2022/09/24 11:31:21;;;;;;;;;;;16.00;99.90;;;;;;5070557;28;20032;-83
2022/09/24 11:34:30;;;;;;;14.73;9.20;;;16.00;99.90;;;;;;5069914;28;19912;-83
2022/09/24 11:37:25;;;;;;;11.00;6.28;;;16.00;99.90;;;;;;5051709;28;20078;-83
2022/09/24 11:40:14;;;;;;;10.68;6.60;;;16.00;99.90;;;;;;5070882;28;20419;-82
2022/09/24 11:42:58;;;;;;;10.50;6.25;;;15.90;99.90;;;;;;5073571;28;20074;-83
2022/09/24 11:46:02;;;;;;;13.63;7.80;;;16.00;99.90;;;;;;5073498;28;20035;-82
2022/09/24 11:48:47;;;;;;;8.95;6.22;;;16.00;99.90;;;;;;5073488;28;20056;-82
2022/09/24 11:51:50;;;;;;;8.65;5.90;;;16.00;99.90;;;;;;5055509;28;20045;-83
2022/09/24 11:54:23;;;;;;;8.73;6.10;;;16.00;99.90;;;;;;5073255;28;20036;-82
2022/09/24 11:57:06;;;;;;;8.65;6.38;;;16.00;99.90;;;;;;5073262;28;20028;-82
2022/09/24 11:59:49;;;;;;;8.60;6.13;;;15.90;99.90;;;;;;5073346;28;20028;-83
2022/09/24 12:02:24;;;;;;;12.02;6.63;;;16.00;99.90;;;;;;5055657;28;20032;-82
2022/09/24 12:05:05;;;;;;;9.38;6.75;;;15.90;99.90;;;;;;5055175;28;20032;-83
2022/09/24 12:07:41;;;;;;;10.98;6.85;;;15.90;99.90;;;;;;5073189;28;20036;-83
2022/09/24 12:10:25;;;;;;;10.45;6.97;;;15.90;99.90;;;;;;5073516;28;20063;-83
2022/09/24 12:12:56;;;;;;;10.75;6.72;;;15.80;99.90;;;;;;5073165;28;20028;-83
2022/09/24 12:15:26;;;;;;;15.20;7.38;;;15.80;99.90;;;;;;5073068;28;20028;-82
2022/09/24 12:18:01;;;;;;;12.10;7.85;;;15.80;99.90;;;;;;5073136;28;20028;-83
2022/09/24 12:20:28;;;;;;;11.23;6.90;;;15.80;99.90;;;;;;5054491;28;20404;-82
2022/09/24 12:23:10;;;;;;;12.02;7.05;;;15.80;99.90;;;;;;5054975;28;20332;-82
2022/09/24 12:25:45;;;;;;;11.13;6.68;;;15.80;99.90;;;;;;5054603;28;20029;-83
2022/09/24 12:32:53;;;;;;;10.07;6.70;;;15.80;99.90;;;;;;5072703;28;20020;-82
2022/09/24 12:34:10;;;;;;;11.60;7.10;;;15.80;99.90;;;;;;5072316;28;20025;-82
2022/09/24 12:36:52;;;;;;;11.30;7.13;;;15.80;99.90;;;;;;5072307;28;20099;-83
2022/09/24 12:39:21;;;;;;;10.38;6.70;;;15.80;99.90;;;;;;5072399;28;20362;-82
2022/09/24 12:41:56;;;;;;;12.13;7.03;;;15.80;99.90;;;;;;5072547;28;20031;-82
2022/09/24 12:44:43;;;;;;;10.73;7.10;;;15.80;99.90;;;;;;5072398;28;20060;-82
2022/09/24 12:47:30;;;;;;;9.95;6.38;;;15.80;99.90;;;;;;5072059;28;20472;-83
2022/09/24 12:50:07;;;;;;;10.77;6.63;;;15.80;99.90;;;;;;5054110;28;20400;-83
2022/09/24 12:52:40;;;;;;;11.68;7.10;;;15.80;99.90;;;;;;5071571;28;20029;-83
2022/09/24 12:55:23;;;;;;;11.57;7.38;;;15.80;99.90;;;;;;5071916;28;20078;-83
2022/09/24 12:58:02;;;;;;;11.32;7.45;;;15.80;99.90;;;;;;5071902;28;20123;-83
2022/09/24 13:00:36;;;;;;;11.20;7.55;;;15.80;99.90;;;;;;5071929;28;20037;-82
2022/09/24 13:03:04;;;;;;;10.57;7.45;;;15.80;99.90;;;;;;5072048;28;20029;-82
2022/09/24 13:05:47;;;;;;;10.05;7.05;;;15.80;99.90;;;;;;5054122;28;20392;-83
2022/09/24 13:08:15;;;;;;;12.88;7.60;;;15.80;99.90;;;;;;5054338;28;20158;-83
2022/09/24 13:11:04;;;;;;;11.70;7.35;;;15.80;99.90;;;;;;5053906;28;20032;-83